createdAt,value
2019-03-22T00:00:57.187Z,7.56
2019-03-22T00:01:57.147Z,7.48
2019-03-22T00:02:57.111Z,7.50
2019-03-22T00:03:57.073Z,7.53
2019-03-22T00:04:57.028Z,7.53
2019-03-22T00:05:56.991Z,7.63
2019-03-22T00:06:56.960Z,7.61
2019-03-22T00:07:56.905Z,7.66
2019-03-22T00:08:56.868Z,7.58
2019-03-22T00:09:56.828Z,7.70
2019-03-22T00:10:56.789Z,7.66
2019-03-22T00:11:56.745Z,7.67
2019-03-22T00:12:56.704Z,7.72
2019-03-22T00:13:56.665Z,7.77
2019-03-22T00:14:56.624Z,7.83
2019-03-22T00:15:56.589Z,7.83
2019-03-22T00:16:56.545Z,7.80
2019-03-22T00:17:56.510Z,7.87
2019-03-22T00:18:56.474Z,7.87
2019-03-22T00:19:56.422Z,7.82
2019-03-22T00:20:56.382Z,7.85
2019-03-22T00:21:56.342Z,7.97
2019-03-22T00:22:56.305Z,8.05
2019-03-22T00:23:56.265Z,8.00
2019-03-22T00:24:56.222Z,8.10
2019-03-22T00:25:56.180Z,8.13
2019-03-22T00:26:56.138Z,8.23
2019-03-22T00:27:56.105Z,8.26
2019-03-22T00:28:56.062Z,8.26
2019-03-22T00:29:56.021Z,8.24
2019-03-22T00:31:04.638Z,8.31
2019-03-22T00:33:00.380Z,8.31
2019-03-22T00:34:00.314Z,8.30
2019-03-22T00:35:00.420Z,8.37
2019-03-22T00:36:00.238Z,8.30
2019-03-22T00:37:00.200Z,8.37
2019-03-22T00:38:00.219Z,8.42
2019-03-22T00:39:00.117Z,8.42
2019-03-22T00:40:00.073Z,8.36
2019-03-22T00:41:00.032Z,8.41
2019-03-22T00:42:00.006Z,8.37
2019-03-22T00:42:59.953Z,8.41
2019-03-22T00:43:59.911Z,8.38
2019-03-22T00:44:59.871Z,8.34
2019-03-22T00:45:59.831Z,8.42
2019-03-22T00:46:59.793Z,8.38
2019-03-22T00:47:59.752Z,8.36
2019-03-22T00:48:59.719Z,8.41
2019-03-22T00:49:59.673Z,8.30
2019-03-22T00:50:59.630Z,8.34
2019-03-22T00:51:59.589Z,8.36
2019-03-22T00:52:59.548Z,8.34
2019-03-22T00:53:59.506Z,8.31
2019-03-22T00:54:59.469Z,8.27
2019-03-22T00:55:59.428Z,8.20
2019-03-22T00:56:59.391Z,8.23
2019-03-22T00:57:59.345Z,8.23
2019-03-22T00:58:59.304Z,8.16
2019-03-22T00:59:59.267Z,8.15
2019-03-22T01:00:59.227Z,8.19
2019-03-22T01:01:59.191Z,8.12
2019-03-22T01:02:59.144Z,8.20
2019-03-22T01:03:59.103Z,8.16
2019-03-22T01:04:59.060Z,8.16
2019-03-22T01:05:59.019Z,8.16
2019-03-22T01:06:58.981Z,8.15
2019-03-22T01:07:58.942Z,8.19
2019-03-22T01:08:58.905Z,8.16
2019-03-22T01:09:58.865Z,8.13
2019-03-22T01:10:58.821Z,8.13
2019-03-22T01:11:58.778Z,8.00
2019-03-22T01:12:58.739Z,8.06
2019-03-22T01:13:58.703Z,8.06
2019-03-22T01:14:58.659Z,8.10
2019-03-22T01:15:58.618Z,8.09
2019-03-22T01:16:58.574Z,8.12
2019-03-22T01:17:58.534Z,8.06
2019-03-22T01:18:58.497Z,8.06
2019-03-22T01:19:58.456Z,8.05
2019-03-22T01:20:58.419Z,8.13
2019-03-22T01:21:58.378Z,8.03
2019-03-22T01:22:58.337Z,8.12
2019-03-22T01:23:59.982Z,8.05
2019-03-22T01:24:58.251Z,8.19
2019-03-22T01:25:58.213Z,8.09
2019-03-22T01:26:58.170Z,8.19
2019-03-22T01:27:58.132Z,8.10
2019-03-22T01:28:58.096Z,8.12
2019-03-22T01:29:58.048Z,8.23
2019-03-22T01:30:58.008Z,8.15
2019-03-22T01:31:57.970Z,8.12
2019-03-22T01:32:57.932Z,8.16
2019-03-22T01:33:57.891Z,8.19
2019-03-22T01:34:57.850Z,8.12
2019-03-22T01:35:57.805Z,8.20
2019-03-22T01:36:57.764Z,8.19
2019-03-22T01:37:57.723Z,8.15
2019-03-22T01:38:57.684Z,8.24
2019-03-22T01:39:57.645Z,8.16
2019-03-22T01:40:57.606Z,8.13
2019-03-22T01:41:57.564Z,8.13
2019-03-22T01:42:57.528Z,8.12
2019-03-22T01:43:57.482Z,8.03
2019-03-22T01:44:57.438Z,8.06
2019-03-22T01:45:57.405Z,8.01
2019-03-22T01:46:57.360Z,8.06
2019-03-22T01:47:57.324Z,8.08
2019-03-22T01:48:57.276Z,8.08
2019-03-22T01:49:57.235Z,8.08
2019-03-22T01:50:57.195Z,8.01
2019-03-22T01:51:57.157Z,8.09
2019-03-22T01:52:57.118Z,8.09
2019-03-22T01:53:57.084Z,8.06
2019-03-22T01:54:57.035Z,8.15
2019-03-22T01:55:56.992Z,8.16
2019-03-22T01:56:56.951Z,8.20
2019-03-22T01:57:56.910Z,8.23
2019-03-22T01:58:56.927Z,8.16
2019-03-22T01:59:56.834Z,8.19
2019-03-22T02:00:56.793Z,8.16
2019-03-22T02:01:56.748Z,8.28
2019-03-22T02:02:56.730Z,8.27
2019-03-22T02:03:56.670Z,8.26
2019-03-22T02:04:56.631Z,8.37
2019-03-22T02:05:56.592Z,8.31
2019-03-22T02:06:56.546Z,8.28
2019-03-22T02:07:56.506Z,8.42
2019-03-22T02:08:56.463Z,8.34
2019-03-22T02:09:56.423Z,8.37
2019-03-22T02:10:56.381Z,8.36
2019-03-22T02:11:56.344Z,8.41
2019-03-22T02:12:56.305Z,8.37
2019-03-22T02:13:56.265Z,8.36
2019-03-22T02:14:56.221Z,8.30
2019-03-22T02:15:56.180Z,8.38
2019-03-22T02:16:56.138Z,8.36
2019-03-22T02:17:56.102Z,8.37
2019-03-22T02:18:56.061Z,8.28
2019-03-22T02:19:56.016Z,8.18
2019-03-22T02:20:55.974Z,8.24
2019-03-22T02:21:55.934Z,8.23
2019-03-22T02:22:55.894Z,8.23
2019-03-22T02:23:55.858Z,8.23
2019-03-22T02:24:55.817Z,8.16
2019-03-22T02:25:55.777Z,8.05
2019-03-22T02:26:55.735Z,8.05
2019-03-22T02:28:03.815Z,8.03
2019-03-22T02:28:55.649Z,8.08
2019-03-22T02:29:55.610Z,8.03
2019-03-22T02:30:55.568Z,7.98
2019-03-22T02:31:55.535Z,8.03
2019-03-22T02:32:55.490Z,8.00
2019-03-22T02:33:55.568Z,7.94
2019-03-22T02:34:55.412Z,7.95
2019-03-22T02:35:55.371Z,7.97
2019-03-22T02:36:55.329Z,8.00
2019-03-22T02:37:55.287Z,7.98
2019-03-22T02:38:55.254Z,7.93
2019-03-22T02:39:55.203Z,7.90
2019-03-22T02:40:55.166Z,7.91
2019-03-22T02:41:55.125Z,7.82
2019-03-22T02:42:55.082Z,7.83
2019-03-22T02:43:55.058Z,7.85
2019-03-22T02:44:55.003Z,7.75
2019-03-22T02:45:54.964Z,7.85
2019-03-22T02:46:54.922Z,7.76
2019-03-22T02:47:54.882Z,7.73
2019-03-22T02:48:54.838Z,7.79
2019-03-22T02:49:54.800Z,7.80
2019-03-22T02:50:56.282Z,7.83
2019-03-22T02:51:54.715Z,7.79
2019-03-22T02:52:54.677Z,7.75
2019-03-22T02:53:54.634Z,7.80
2019-03-22T02:54:54.595Z,7.83
2019-03-22T02:55:54.724Z,7.76
2019-03-22T02:56:54.515Z,7.79
2019-03-22T02:57:54.477Z,7.87
2019-03-22T02:58:54.483Z,7.85
2019-03-22T02:59:54.390Z,7.83
2019-03-22T03:00:54.366Z,7.76
2019-03-22T03:01:54.313Z,7.67
2019-03-22T03:02:54.265Z,7.66
2019-03-22T03:03:54.233Z,7.73
2019-03-22T03:04:54.195Z,7.72
2019-03-22T03:05:54.146Z,7.63
2019-03-22T03:06:54.101Z,7.63
2019-03-22T03:07:54.066Z,7.58
2019-03-22T03:08:54.029Z,7.53
2019-03-22T03:09:53.983Z,7.63
2019-03-22T03:10:53.942Z,7.58
2019-03-22T03:11:53.898Z,7.57
2019-03-22T03:12:53.861Z,7.54
2019-03-22T03:13:53.822Z,7.58
2019-03-22T03:14:53.778Z,7.45
2019-03-22T03:15:53.750Z,7.47
2019-03-22T03:16:53.698Z,7.43
2019-03-22T03:17:53.659Z,7.39
2019-03-22T03:18:53.625Z,7.36
2019-03-22T03:19:53.573Z,7.43
2019-03-22T03:20:53.549Z,7.48
2019-03-22T03:21:53.495Z,7.38
2019-03-22T03:22:53.455Z,7.42
2019-03-22T03:23:53.407Z,7.40
2019-03-22T03:24:53.368Z,7.29
2019-03-22T03:25:53.331Z,7.38
2019-03-22T03:26:53.283Z,7.33
2019-03-22T03:27:53.249Z,7.35
2019-03-22T03:28:53.207Z,7.38
2019-03-22T03:29:53.177Z,7.43
2019-03-22T03:43:52.227Z,7.48
2019-03-22T03:44:52.152Z,7.50
2019-03-22T03:45:52.099Z,7.57
2019-03-22T03:46:52.057Z,7.60
2019-03-22T03:47:52.016Z,7.51
2019-03-22T03:48:51.972Z,7.61
2019-03-22T03:49:51.923Z,7.60
2019-03-22T03:50:51.881Z,7.53
2019-03-22T03:51:51.839Z,7.50
2019-03-22T03:52:51.794Z,7.54
2019-03-22T03:53:51.756Z,7.51
2019-03-22T03:54:51.713Z,7.47
2019-03-22T03:55:51.679Z,7.51
2019-03-22T03:56:51.625Z,7.51
2019-03-22T03:57:51.590Z,7.51
2019-03-22T03:58:52.896Z,7.48
2019-03-22T03:59:51.503Z,7.50
2019-03-22T04:00:51.463Z,7.53
2019-03-22T04:01:51.421Z,7.50
2019-03-22T04:02:51.377Z,7.48
2019-03-22T04:03:51.336Z,7.43
2019-03-22T04:04:51.311Z,7.50
2019-03-22T04:05:51.250Z,7.40
2019-03-22T04:06:51.209Z,7.47
2019-03-22T04:07:51.168Z,7.35
2019-03-22T04:08:51.125Z,7.45
2019-03-22T04:09:51.089Z,7.39
2019-03-22T04:10:51.045Z,7.40
2019-03-22T04:11:51.008Z,7.36
2019-03-22T04:12:50.968Z,7.50
2019-03-22T04:13:50.919Z,7.32
2019-03-22T04:14:50.878Z,7.38
2019-03-22T04:15:50.835Z,7.36
2019-03-22T04:16:50.794Z,7.29
2019-03-22T04:17:50.757Z,7.28
2019-03-22T04:18:50.715Z,7.25
2019-03-22T04:19:50.671Z,7.24
2019-03-22T04:20:50.631Z,7.31
2019-03-22T04:21:50.639Z,7.28
2019-03-22T04:22:50.554Z,7.29
2019-03-22T04:23:50.508Z,7.20
2019-03-22T04:24:50.472Z,7.33
2019-03-22T04:25:50.484Z,7.28
2019-03-22T04:26:50.383Z,7.31
2019-03-22T04:27:50.338Z,7.24
2019-03-22T04:28:50.300Z,7.31
2019-03-22T04:29:50.261Z,7.23
2019-03-22T04:30:50.258Z,7.31
2019-03-22T04:31:50.178Z,7.32
2019-03-22T04:32:50.152Z,7.14
2019-03-22T04:33:50.091Z,7.10
2019-03-22T04:34:50.052Z,7.17
2019-03-22T04:35:50.013Z,7.14
2019-03-22T04:36:49.972Z,7.18
2019-03-22T04:37:49.926Z,7.17
2019-03-22T04:38:49.885Z,7.25
2019-03-22T04:39:49.843Z,7.23
2019-03-22T04:40:49.803Z,7.23
2019-03-22T04:41:49.768Z,7.24
2019-03-22T04:42:49.722Z,7.32
2019-03-22T04:43:49.681Z,7.29
2019-03-22T04:44:49.641Z,7.24
2019-03-22T04:45:49.596Z,7.32
2019-03-22T04:46:49.557Z,7.32
2019-03-22T04:47:49.513Z,7.29
2019-03-22T04:48:49.471Z,7.29
2019-03-22T04:49:49.435Z,7.28
2019-03-22T04:50:49.395Z,7.31
2019-03-22T04:51:49.349Z,7.31
2019-03-22T04:52:49.305Z,7.35
2019-03-22T04:53:49.271Z,7.28
2019-03-22T04:54:49.228Z,7.31
2019-03-22T04:55:49.188Z,7.32
2019-03-22T04:56:49.146Z,7.29
2019-03-22T04:57:49.101Z,7.31
2019-03-22T04:58:49.061Z,7.31
2019-03-22T04:59:49.022Z,7.32
2019-03-22T05:00:48.976Z,7.31
2019-03-22T05:01:48.940Z,7.17
2019-03-22T05:02:48.956Z,7.23
2019-03-22T05:03:48.855Z,7.29
2019-03-22T05:04:48.817Z,7.20
2019-03-22T05:05:48.770Z,7.20
2019-03-22T05:06:48.731Z,7.17
2019-03-22T05:07:48.692Z,7.23
2019-03-22T05:08:48.651Z,7.15
2019-03-22T05:09:48.608Z,7.15
2019-03-22T05:10:48.567Z,7.20
2019-03-22T05:11:48.524Z,7.23
2019-03-22T05:12:48.481Z,7.18
2019-03-22T05:13:48.448Z,7.15
2019-03-22T05:14:48.402Z,7.21
2019-03-22T05:15:48.362Z,7.06
2019-03-22T05:16:48.320Z,7.14
2019-03-22T05:17:48.275Z,7.13
2019-03-22T05:18:48.237Z,7.07
2019-03-22T05:19:48.193Z,7.13
2019-03-22T05:20:48.150Z,7.11
2019-03-22T05:21:48.115Z,7.14
2019-03-22T05:22:48.072Z,7.11
2019-03-22T05:23:48.028Z,7.24
2019-03-22T05:24:47.986Z,7.24
2019-03-22T05:25:47.950Z,7.20
2019-03-22T05:26:47.907Z,7.28
2019-03-22T05:27:47.865Z,7.17
2019-03-22T05:28:47.827Z,7.20
2019-03-22T05:29:47.780Z,7.20
2019-03-22T05:30:47.740Z,7.11
2019-03-22T05:31:47.701Z,7.15
2019-03-22T05:32:47.655Z,7.03
2019-03-22T05:33:47.620Z,7.07
2019-03-22T05:34:47.578Z,7.13
2019-03-22T05:35:47.535Z,7.02
2019-03-22T05:36:47.496Z,7.06
2019-03-22T05:37:47.450Z,7.05
2019-03-22T05:38:47.412Z,7.13
2019-03-22T05:39:47.373Z,7.05
2019-03-22T05:40:47.330Z,7.15
2019-03-22T05:41:47.287Z,7.00
2019-03-22T05:42:47.244Z,7.05
2019-03-22T05:43:47.203Z,7.17
2019-03-22T05:44:47.161Z,7.11
2019-03-22T05:45:47.125Z,7.14
2019-03-22T05:46:48.921Z,7.17
2019-03-22T05:47:47.043Z,7.17
2019-03-22T05:48:47.014Z,7.24
2019-03-22T05:49:46.955Z,7.17
2019-03-22T05:50:46.967Z,7.24
2019-03-22T05:51:46.873Z,7.29
2019-03-22T05:52:46.829Z,7.35
2019-03-22T05:53:46.795Z,7.33
2019-03-22T05:54:46.751Z,7.32
2019-03-22T05:55:46.707Z,7.32
2019-03-22T05:56:46.666Z,7.23
2019-03-22T05:57:46.630Z,7.31
2019-03-22T05:58:46.588Z,7.25
2019-03-22T05:59:46.546Z,7.29
2019-03-22T06:00:46.505Z,7.28
2019-03-22T06:01:46.460Z,7.38
2019-03-22T06:02:46.420Z,7.36
2019-03-22T06:03:46.379Z,7.32
2019-03-22T06:04:46.334Z,7.39
2019-03-22T06:05:46.298Z,7.43
2019-03-22T06:06:46.260Z,7.43
2019-03-22T06:07:46.217Z,7.45
2019-03-22T06:08:46.172Z,7.51
2019-03-22T06:09:46.135Z,7.51
2019-03-22T06:10:46.088Z,7.53
2019-03-22T06:11:46.049Z,7.57
2019-03-22T06:12:46.011Z,7.47
2019-03-22T06:13:45.963Z,7.57
2019-03-22T06:14:45.924Z,7.66
2019-03-22T06:15:45.882Z,7.56
2019-03-22T06:16:45.838Z,7.66
2019-03-22T06:17:51.514Z,7.76
2019-03-22T06:18:45.762Z,7.72
2019-03-22T06:19:45.719Z,7.77
2019-03-22T06:20:45.681Z,7.88
2019-03-22T06:21:45.634Z,7.85
2019-03-22T06:22:45.596Z,7.91
2019-03-22T06:23:45.554Z,7.98
2019-03-22T06:24:45.511Z,8.06
2019-03-22T06:25:45.475Z,8.06
2019-03-22T06:26:45.436Z,8.19
2019-03-22T06:27:45.390Z,8.16
2019-03-22T06:28:45.347Z,8.23
2019-03-22T06:29:53.556Z,8.23
2019-03-22T06:30:47.816Z,8.38
2019-03-22T06:31:45.228Z,8.31
2019-03-22T06:32:45.190Z,8.37
2019-03-22T06:33:45.143Z,8.37
2019-03-22T06:34:45.104Z,8.33
2019-03-22T06:35:45.062Z,8.48
2019-03-22T06:36:45.021Z,8.45
2019-03-22T06:37:44.987Z,8.51
2019-03-22T06:38:44.943Z,8.49
2019-03-22T06:39:44.903Z,8.51
2019-03-22T06:40:44.865Z,8.60
2019-03-22T06:41:44.817Z,8.56
2019-03-22T06:42:44.778Z,8.66
2019-03-22T06:43:44.741Z,8.63
2019-03-22T06:44:44.700Z,8.55
2019-03-22T06:45:44.653Z,8.63
2019-03-22T06:46:44.616Z,8.70
2019-03-22T06:47:44.574Z,8.79
2019-03-22T06:48:44.532Z,8.79
2019-03-22T06:49:44.544Z,8.74
2019-03-22T06:50:44.456Z,8.78
2019-03-22T06:51:44.414Z,8.85
2019-03-22T06:52:44.387Z,8.94
2019-03-22T06:53:44.332Z,9.00
2019-03-22T06:54:44.291Z,8.84
2019-03-22T06:55:44.250Z,8.92
2019-03-22T06:56:44.209Z,8.94
2019-03-22T06:57:44.173Z,8.85
2019-03-22T06:58:44.132Z,8.82
2019-03-22T06:59:44.096Z,8.85
2019-03-22T07:00:44.046Z,8.82
2019-03-22T07:01:44.017Z,8.88
2019-03-22T07:02:43.971Z,8.88
2019-03-22T07:03:43.929Z,8.87
2019-03-22T07:04:43.891Z,8.92
2019-03-22T07:05:43.845Z,8.88
2019-03-22T07:06:43.807Z,9.00
2019-03-22T07:07:43.768Z,9.02
2019-03-22T07:08:43.725Z,9.08
2019-03-22T07:09:43.689Z,9.10
2019-03-22T07:10:43.647Z,9.13
2019-03-22T07:11:43.608Z,9.29
2019-03-22T07:12:43.568Z,9.23
2019-03-22T07:13:43.523Z,9.28
2019-03-22T07:14:43.485Z,9.28
2019-03-22T07:15:43.446Z,9.28
2019-03-22T07:16:43.408Z,9.41
2019-03-22T07:17:43.363Z,9.47
2019-03-22T07:18:43.325Z,9.50
2019-03-22T07:19:43.287Z,9.46
2019-03-22T07:20:43.247Z,9.58
2019-03-22T07:21:43.208Z,9.54
2019-03-22T07:22:43.166Z,9.59
2019-03-22T07:23:43.127Z,9.69
2019-03-22T07:24:43.087Z,9.68
2019-03-22T07:25:43.043Z,9.69
2019-03-22T07:26:43.012Z,9.83
2019-03-22T07:27:42.964Z,9.80
2019-03-22T07:28:42.925Z,9.87
2019-03-22T07:29:42.889Z,9.89
2019-03-22T07:30:42.849Z,9.95
2019-03-22T07:31:42.804Z,9.98
2019-03-22T07:32:42.763Z,9.91
2019-03-22T07:33:42.729Z,10.04
2019-03-22T07:34:42.687Z,9.99
2019-03-22T07:35:42.648Z,10.07
2019-03-22T07:36:42.612Z,10.04
2019-03-22T07:37:42.566Z,10.23
2019-03-22T07:38:42.527Z,10.34
2019-03-22T07:39:42.487Z,10.33
2019-03-22T07:40:42.445Z,10.46
2019-03-22T07:41:42.411Z,10.51
2019-03-22T07:42:42.372Z,10.60
2019-03-22T07:43:42.330Z,10.56
2019-03-22T07:44:42.293Z,10.67
2019-03-22T07:45:42.248Z,10.64
2019-03-22T07:46:42.213Z,10.60
2019-03-22T07:47:42.172Z,10.71
2019-03-22T07:48:42.135Z,10.81
2019-03-22T07:49:42.090Z,10.82
2019-03-22T07:50:42.055Z,10.94
2019-03-22T07:51:42.013Z,10.92
2019-03-22T07:52:41.972Z,10.99
2019-03-22T07:53:41.939Z,11.05
2019-03-22T07:54:41.898Z,11.23
2019-03-22T07:55:41.862Z,11.35
2019-03-22T07:56:41.820Z,11.45
2019-03-22T07:57:41.776Z,11.57
2019-03-22T07:58:41.740Z,11.62
2019-03-22T07:59:41.700Z,11.70
2019-03-22T08:00:41.661Z,11.70
2019-03-22T08:01:41.625Z,11.84
2019-03-22T08:02:41.585Z,11.81
2019-03-22T08:03:41.547Z,11.81
2019-03-22T08:04:41.502Z,11.86
2019-03-22T08:05:50.870Z,12.02
2019-03-22T08:06:41.432Z,11.97
2019-03-22T08:07:41.390Z,12.04
2019-03-22T08:08:41.354Z,12.20
2019-03-22T08:09:41.368Z,12.22
2019-03-22T08:10:41.280Z,12.18
2019-03-22T08:11:41.244Z,12.22
2019-03-22T08:12:41.198Z,12.31
2019-03-22T08:13:41.158Z,12.40
2019-03-22T08:14:41.135Z,12.40
2019-03-22T08:15:41.093Z,12.49
2019-03-22T08:16:41.041Z,12.62
2019-03-22T08:17:41.002Z,12.70
2019-03-22T08:18:40.966Z,12.61
2019-03-22T08:19:40.927Z,12.70
2019-03-22T08:20:40.888Z,12.67
2019-03-22T08:21:40.848Z,12.72
2019-03-22T08:22:40.808Z,12.79
2019-03-22T08:23:40.768Z,12.80
2019-03-22T08:24:40.731Z,12.93
2019-03-22T08:25:43.295Z,13.01
2019-03-22T08:26:40.661Z,12.95
2019-03-22T08:27:40.631Z,13.05
2019-03-22T08:28:40.583Z,13.15
2019-03-22T08:29:40.540Z,13.23
2019-03-22T08:30:43.241Z,13.11
2019-03-22T08:31:40.500Z,13.12
2019-03-22T08:32:40.425Z,13.18
2019-03-22T08:33:40.389Z,13.05
2019-03-22T08:34:40.353Z,13.20
2019-03-22T08:35:40.323Z,13.23
2019-03-22T08:36:40.273Z,13.33
2019-03-22T08:37:51.781Z,13.44
2019-03-22T08:38:40.201Z,13.47
2019-03-22T08:39:40.167Z,13.54
2019-03-22T08:40:40.122Z,13.42
2019-03-22T08:41:40.119Z,13.47
2019-03-22T08:42:40.087Z,13.39
2019-03-22T08:43:40.007Z,13.49
2019-03-22T08:44:39.970Z,13.39
2019-03-22T08:45:39.940Z,13.39
2019-03-22T08:46:39.933Z,13.39
2019-03-22T08:47:39.861Z,13.41
2019-03-22T08:48:39.885Z,13.28
2019-03-22T08:49:39.972Z,13.31
2019-03-22T08:50:39.739Z,13.37
2019-03-22T08:51:39.736Z,13.38
2019-03-22T08:52:39.669Z,13.38
2019-03-22T08:53:39.628Z,13.38
2019-03-22T08:54:39.631Z,13.42
2019-03-22T08:55:39.554Z,13.41
2019-03-22T08:56:39.522Z,13.44
2019-03-22T08:57:39.487Z,13.57
2019-03-22T08:58:39.545Z,13.70
2019-03-22T08:59:39.424Z,13.70
2019-03-22T09:00:39.948Z,13.85
2019-03-22T09:01:39.330Z,13.85
2019-03-22T09:02:39.289Z,13.81
2019-03-22T09:03:39.266Z,13.78
2019-03-22T09:04:39.221Z,13.78
2019-03-22T09:05:39.179Z,13.89
2019-03-22T09:06:39.143Z,14.00
2019-03-22T09:07:39.123Z,14.07
2019-03-22T09:08:39.066Z,14.17
2019-03-22T09:09:41.725Z,14.11
2019-03-22T09:10:39.045Z,14.07
2019-03-22T09:11:38.956Z,14.12
2019-03-22T09:12:38.919Z,14.20
2019-03-22T09:13:38.886Z,14.25
2019-03-22T09:14:38.852Z,14.10
2019-03-22T09:15:42.102Z,14.08
2019-03-22T09:16:38.769Z,14.23
2019-03-22T09:17:38.763Z,14.25
2019-03-22T09:18:38.742Z,14.37
2019-03-22T09:19:38.659Z,14.35
2019-03-22T09:20:38.620Z,14.32
2019-03-22T09:21:38.581Z,14.40
2019-03-22T09:22:38.572Z,14.35
2019-03-22T09:23:38.523Z,14.25
2019-03-22T09:24:39.444Z,14.35
2019-03-22T09:25:38.450Z,14.18
2019-03-22T09:26:47.435Z,14.29
2019-03-22T09:27:38.377Z,14.32
2019-03-22T09:28:38.321Z,14.30
2019-03-22T09:29:38.287Z,14.32
2019-03-22T09:30:38.258Z,14.33
2019-03-22T09:31:38.215Z,14.40
2019-03-22T09:32:38.219Z,14.45
2019-03-22T09:33:38.137Z,14.40
2019-03-22T09:34:38.126Z,14.53
2019-03-22T09:35:38.065Z,14.62
2019-03-22T09:36:38.026Z,14.63
2019-03-22T09:37:37.992Z,14.68
2019-03-22T09:38:37.990Z,14.65
2019-03-22T09:39:37.920Z,14.59
2019-03-22T09:40:37.889Z,14.63
2019-03-22T09:41:37.845Z,14.65
2019-03-22T09:42:37.823Z,14.79
2019-03-22T09:43:37.775Z,15.07
2019-03-22T09:57:49.527Z,15.79
2019-03-22T09:58:48.505Z,15.80
2019-03-22T09:59:48.442Z,15.83
2019-03-22T10:00:48.908Z,15.83
2019-03-22T10:01:48.355Z,15.75
2019-03-22T10:02:48.349Z,15.70
2019-03-22T10:03:48.279Z,15.70
2019-03-22T10:04:48.283Z,15.75
2019-03-22T10:05:48.213Z,15.88
2019-03-22T10:06:48.167Z,15.79
2019-03-22T10:07:50.026Z,15.80
2019-03-22T10:08:48.100Z,15.79
2019-03-22T10:09:48.103Z,15.67
2019-03-22T10:10:48.011Z,15.58
2019-03-22T10:11:47.969Z,15.57
2019-03-22T10:12:47.981Z,15.62
2019-03-22T10:13:48.477Z,15.57
2019-03-22T10:14:47.861Z,15.70
2019-03-22T10:15:47.877Z,15.72
2019-03-22T10:16:47.949Z,15.61
2019-03-22T10:17:47.751Z,15.51
2019-03-22T10:18:47.726Z,15.52
2019-03-22T10:19:47.677Z,15.49
2019-03-22T10:20:47.646Z,15.44
2019-03-22T10:21:47.600Z,15.42
2019-03-22T10:22:47.566Z,15.36
2019-03-22T10:23:47.569Z,15.24
2019-03-22T10:24:47.527Z,15.22
2019-03-22T10:25:47.484Z,15.24
2019-03-22T10:26:47.457Z,15.18
2019-03-22T10:27:47.386Z,15.28
2019-03-22T10:28:47.348Z,15.35
2019-03-22T10:29:47.318Z,15.46
2019-03-22T10:30:47.271Z,15.58
2019-03-22T10:31:47.243Z,15.62
2019-03-22T10:32:47.213Z,15.82
2019-03-22T10:33:47.163Z,15.73
2019-03-22T10:34:47.127Z,15.79
2019-03-22T10:35:47.110Z,15.76
2019-03-22T10:36:47.057Z,15.79
2019-03-22T10:37:47.052Z,15.83
2019-03-22T10:38:47.021Z,15.86
2019-03-22T10:39:46.953Z,15.83
2019-03-22T10:40:46.915Z,15.84
2019-03-22T10:41:46.916Z,15.92
2019-03-22T10:42:46.846Z,15.88
2019-03-22T10:43:46.803Z,15.82
2019-03-22T10:44:46.764Z,15.91
2019-03-22T10:45:46.728Z,15.90
2019-03-22T10:46:46.766Z,16.02
2019-03-22T10:47:46.685Z,16.01
2019-03-22T10:48:46.636Z,15.91
2019-03-22T10:49:46.671Z,15.98
2019-03-22T10:50:46.603Z,16.13
2019-03-22T10:51:56.014Z,16.36
2019-03-22T10:52:48.191Z,16.31
2019-03-22T10:53:46.442Z,16.24
2019-03-22T10:54:46.480Z,16.23
2019-03-22T10:55:46.373Z,16.31
2019-03-22T10:56:46.331Z,16.23
2019-03-22T10:57:46.297Z,16.15
2019-03-22T10:58:46.280Z,16.23
2019-03-22T10:59:46.230Z,16.15
2019-03-22T11:00:46.195Z,16.13
2019-03-22T11:01:52.419Z,16.13
2019-03-22T11:02:46.120Z,16.28
2019-03-22T11:03:46.180Z,16.23
2019-03-22T11:04:46.045Z,16.28
2019-03-22T11:05:46.012Z,16.31
2019-03-22T11:06:45.978Z,16.31
2019-03-22T11:07:45.945Z,16.32
2019-03-22T11:08:45.908Z,16.28
2019-03-22T11:09:45.870Z,16.33
2019-03-22T11:10:45.835Z,16.38
2019-03-22T11:11:45.798Z,16.38
2019-03-22T11:12:45.765Z,16.23
2019-03-22T11:13:45.730Z,16.33
2019-03-22T11:14:45.830Z,16.33
2019-03-22T11:15:48.677Z,16.42
2019-03-22T11:16:45.618Z,16.76
2019-03-22T11:17:45.585Z,16.86
2019-03-22T11:18:45.557Z,17.01
2019-03-22T11:19:45.518Z,17.01
2019-03-22T11:20:45.810Z,17.09
2019-03-22T11:21:45.449Z,17.24
2019-03-22T11:22:45.410Z,17.22
2019-03-22T11:23:45.371Z,17.27
2019-03-22T11:24:45.334Z,17.38
2019-03-22T11:25:45.324Z,17.38
2019-03-22T11:26:45.268Z,17.33
2019-03-22T11:27:45.235Z,17.41
2019-03-22T11:28:45.196Z,17.38
2019-03-22T11:29:45.164Z,17.49
2019-03-22T11:30:45.127Z,17.46
2019-03-22T11:31:45.100Z,17.57
2019-03-22T11:32:45.058Z,17.68
2019-03-22T11:33:45.025Z,17.71
2019-03-22T11:34:45.007Z,17.57
2019-03-22T11:35:44.950Z,17.63
2019-03-22T11:36:44.914Z,17.79
2019-03-22T11:37:44.881Z,17.79
2019-03-22T11:38:44.849Z,17.95
2019-03-22T11:39:44.815Z,18.11
2019-03-22T11:40:46.794Z,18.25
2019-03-22T11:41:44.744Z,18.00
2019-03-22T11:42:44.706Z,17.98
2019-03-22T11:43:44.672Z,17.95
2019-03-22T11:44:44.643Z,17.83
2019-03-22T11:45:44.610Z,17.76
2019-03-22T11:46:44.567Z,17.80
2019-03-22T11:47:44.536Z,17.74
2019-03-22T11:48:44.496Z,17.92
2019-03-22T11:49:44.471Z,18.07
2019-03-22T11:50:44.431Z,18.28
2019-03-22T11:51:44.401Z,18.23
2019-03-22T11:52:44.363Z,18.31
2019-03-22T11:53:44.329Z,18.33
2019-03-22T11:54:44.290Z,18.37
2019-03-22T11:55:44.256Z,18.35
2019-03-22T11:56:44.223Z,18.43
2019-03-22T11:57:44.189Z,18.40
2019-03-22T11:58:44.154Z,18.41
2019-03-22T11:59:44.123Z,18.49
2019-03-22T12:00:44.082Z,18.50
2019-03-22T12:01:44.053Z,18.50
2019-03-22T12:02:44.018Z,18.47
2019-03-22T12:03:43.986Z,18.56
2019-03-22T12:04:43.951Z,18.63
2019-03-22T12:05:43.916Z,18.56
2019-03-22T12:06:43.880Z,18.60
2019-03-22T12:07:43.843Z,18.71
2019-03-22T12:08:43.809Z,18.74
2019-03-22T12:09:43.778Z,18.63
2019-03-22T12:10:43.744Z,18.75
2019-03-22T12:11:43.712Z,18.75
2019-03-22T12:12:43.678Z,18.73
2019-03-22T12:13:43.642Z,18.71
2019-03-22T12:14:43.606Z,18.59
2019-03-22T12:15:43.572Z,18.63
2019-03-22T12:16:43.541Z,18.68
2019-03-22T12:17:43.505Z,18.74
2019-03-22T12:18:43.470Z,18.62
2019-03-22T12:19:43.434Z,18.62
2019-03-22T12:20:43.400Z,18.59
2019-03-22T12:21:43.367Z,18.73
2019-03-22T12:22:43.336Z,18.66
2019-03-22T12:23:43.311Z,18.56
2019-03-22T12:24:43.268Z,18.58
2019-03-22T12:25:43.234Z,18.62
2019-03-22T12:26:43.198Z,18.55
2019-03-22T12:27:43.163Z,18.65
2019-03-22T12:28:43.129Z,18.77
2019-03-22T12:29:43.095Z,18.90
2019-03-22T12:30:43.064Z,18.88
2019-03-22T12:31:51.697Z,18.90
2019-03-22T12:33:47.449Z,19.18
2019-03-22T12:34:47.391Z,19.14
2019-03-22T12:35:47.354Z,19.15
2019-03-22T12:36:47.325Z,19.16
2019-03-22T12:37:47.291Z,19.19
2019-03-22T12:38:47.256Z,19.18
2019-03-22T12:39:47.229Z,19.07
2019-03-22T12:40:47.186Z,19.15
2019-03-22T12:41:47.156Z,19.15
2019-03-22T12:42:47.124Z,19.02
2019-03-22T12:43:47.096Z,19.02
2019-03-22T12:44:47.059Z,19.09
2019-03-22T12:45:47.021Z,18.92
2019-03-22T12:46:49.105Z,19.18
2019-03-22T12:47:46.949Z,19.11
2019-03-22T12:48:46.916Z,19.18
2019-03-22T12:49:46.884Z,19.21
2019-03-22T12:50:46.852Z,19.27
2019-03-22T12:51:46.830Z,19.18
2019-03-22T12:52:46.787Z,19.16
2019-03-22T12:53:46.752Z,19.21
2019-03-22T12:54:46.721Z,19.16
2019-03-22T12:55:48.626Z,19.40
2019-03-22T12:56:46.669Z,19.59
2019-03-22T12:57:46.627Z,19.66
2019-03-22T12:58:46.582Z,19.64
2019-03-22T12:59:46.548Z,19.59
2019-03-22T13:00:46.516Z,19.49
2019-03-22T13:01:46.485Z,19.63
2019-03-22T13:02:46.449Z,19.62
2019-03-22T13:03:46.419Z,19.56
2019-03-22T13:04:46.385Z,19.64
2019-03-22T13:05:46.350Z,19.70
2019-03-22T13:06:46.318Z,19.64
2019-03-22T13:07:46.282Z,19.52
2019-03-22T13:08:46.247Z,19.37
2019-03-22T13:09:46.214Z,19.47
2019-03-22T13:10:46.182Z,19.48
2019-03-22T13:11:46.152Z,19.51
2019-03-22T13:12:46.112Z,19.39
2019-03-22T13:13:46.082Z,19.47
2019-03-22T13:14:46.049Z,19.33
2019-03-22T13:15:46.018Z,19.19
2019-03-22T13:16:45.984Z,19.51
2019-03-22T13:17:45.952Z,19.48
2019-03-22T13:18:50.088Z,19.52
2019-03-22T13:19:45.879Z,19.67
2019-03-22T13:20:45.847Z,19.86
2019-03-22T13:21:45.814Z,19.81
2019-03-22T13:22:45.782Z,19.82
2019-03-22T13:23:45.751Z,19.95
2019-03-22T13:24:45.719Z,20.04
2019-03-22T13:25:45.683Z,20.07
2019-03-22T13:26:45.646Z,20.00
2019-03-22T13:27:45.612Z,19.96
2019-03-22T13:28:45.586Z,19.88
2019-03-22T13:29:45.553Z,19.71
2019-03-22T13:30:45.514Z,19.70
2019-03-22T13:31:45.480Z,19.82
2019-03-22T13:32:52.115Z,19.84
2019-03-22T13:33:45.416Z,19.70
2019-03-22T13:34:45.386Z,19.81